Time;durP1;ratioP1;P1;durP2;ratioP2;P2;SDS_P1;SDS_P2;PMS_P1;PMS_P2;Temp;Humidity;BMP_temperature;BMP_pressure;BME280_temperature;BME280_humidity;BME280_pressure;Samples;Min_cycle;Max_cycle;Signal;HPM_P1;HPM_P2
2021/03/04 00:00:18;;;;;;;8.00;4.03;;;4.40;99.90;;;;;;5066476;28;20178;-79
2021/03/04 00:02:43;;;;;;;5.87;4.17;;;4.50;99.90;;;;;;5066110;28;20617;-79
2021/03/04 00:05:11;;;;;;;6.80;3.53;;;4.50;99.90;;;;;;5084655;28;20657;-79
2021/03/04 00:07:38;;;;;;;7.03;4.43;;;4.60;99.90;;;;;;5065406;28;20225;-79
2021/03/04 00:10:07;;;;;;;6.07;4.00;;;4.50;99.90;;;;;;5085086;28;20633;-80
2021/03/04 00:12:32;;;;;;;5.00;3.60;;;4.60;99.90;;;;;;5085448;28;20189;-80
2021/03/04 00:14:58;;;;;;;9.43;3.60;;;4.60;99.90;;;;;;5085094;28;20179;-79
2021/03/04 00:17:24;;;;;;;7.07;4.20;;;4.60;99.90;;;;;;5066922;28;20182;-79
2021/03/04 00:19:50;;;;;;;5.27;3.27;;;4.60;99.90;;;;;;5067339;28;20594;-79
2021/03/04 00:22:15;;;;;;;7.40;4.03;;;4.60;99.90;;;;;;5085705;28;20177;-79
2021/03/04 00:24:41;;;;;;;5.77;3.33;;;4.60;99.90;;;;;;5084624;28;20198;-79
2021/03/04 00:27:07;;;;;;;6.33;3.53;;;4.50;99.90;;;;;;5084212;28;20570;-79
2021/03/04 00:29:33;;;;;;;7.63;3.97;;;4.50;99.90;;;;;;5065538;28;20813;-79
2021/03/04 00:31:58;;;;;;;6.13;3.60;;;4.40;99.90;;;;;;5083866;28;20198;-79
2021/03/04 00:34:24;;;;;;;12.27;4.13;;;4.40;99.90;;;;;;5083557;28;20215;-79
2021/03/04 00:36:50;;;;;;;4.73;3.30;;;4.20;99.90;;;;;;5084490;28;20256;-79
2021/03/04 00:39:15;;;;;;;7.13;3.63;;;4.20;99.90;;;;;;5066171;28;20185;-79
2021/03/04 00:41:41;;;;;;;6.10;3.90;;;4.20;99.90;;;;;;5066022;28;20186;-79
2021/03/04 00:44:08;;;;;;;6.00;3.60;;;4.20;99.90;;;;;;5084389;28;20283;-79
2021/03/04 00:46:34;;;;;;;6.57;3.10;;;4.10;99.90;;;;;;5066104;28;20714;-80
2021/03/04 00:49:00;;;;;;;4.77;3.30;;;4.20;99.90;;;;;;5084712;28;20663;-79
2021/03/04 00:51:27;;;;;;;6.30;3.93;;;4.10;99.90;;;;;;5084158;28;20649;-79
2021/03/04 00:53:53;;;;;;;5.23;3.37;;;4.20;99.90;;;;;;5084149;28;20194;-79
2021/03/04 00:56:18;;;;;;;5.93;3.63;;;4.10;99.90;;;;;;5066252;28;20204;-79
2021/03/04 00:58:44;;;;;;;4.83;3.60;;;4.20;99.90;;;;;;5066843;28;20207;-79
2021/03/04 01:01:10;;;;;;;5.40;3.20;;;4.10;99.90;;;;;;5066542;28;20560;-79
2021/03/04 01:03:35;;;;;;;6.13;3.50;;;4.20;99.90;;;;;;5084592;28;20685;-79
2021/03/04 01:06:01;;;;;;;4.50;3.33;;;3.90;99.90;;;;;;5066245;28;20182;-80
2021/03/04 01:08:27;;;;;;;5.50;3.77;;;4.10;99.90;;;;;;5083846;28;20202;-79
2021/03/04 01:10:52;;;;;;;4.93;3.30;;;4.10;99.90;;;;;;5085100;28;20178;-79
2021/03/04 01:13:19;;;;;;;6.03;3.47;;;4.10;99.90;;;;;;5066546;28;20218;-80
2021/03/04 01:15:44;;;;;;;5.17;3.40;;;4.00;99.90;;;;;;5066471;28;20177;-79
2021/03/04 01:18:10;;;;;;;4.63;3.17;;;4.00;99.90;;;;;;5066389;28;20177;-79
2021/03/04 01:20:36;;;;;;;5.90;3.37;;;4.10;99.90;;;;;;5084905;28;20615;-79
2021/03/04 01:23:02;;;;;;;6.27;3.60;;;4.10;99.90;;;;;;5084430;28;20194;-80
2021/03/04 01:25:28;;;;;;;6.30;4.10;;;4.00;99.90;;;;;;5084053;28;20209;-79
2021/03/04 01:27:53;;;;;;;5.57;3.80;;;4.00;99.90;;;;;;5085193;28;20167;-79
2021/03/04 01:30:23;;;;;;;11.13;3.50;;;3.90;99.90;;;;;;5067498;28;20209;-79
2021/03/04 01:32:49;;;;;;;4.67;2.93;;;3.90;99.90;;;;;;5066609;28;20197;-79
2021/03/04 01:35:16;;;;;;;6.50;3.30;;;4.00;99.90;;;;;;5085629;28;20170;-79
2021/03/04 01:37:42;;;;;;;5.00;3.83;;;3.90;99.90;;;;;;5084621;28;20205;-79
2021/03/04 01:40:10;;;;;;;4.63;3.20;;;3.90;99.90;;;;;;5085421;28;20560;-79
2021/03/04 01:42:36;;;;;;;6.60;3.33;;;3.90;99.90;;;;;;5084609;28;20187;-79
2021/03/04 01:45:03;;;;;;;4.83;3.20;;;3.80;99.90;;;;;;5068493;28;20208;-79
2021/03/04 01:47:29;;;;;;;4.83;3.50;;;3.80;99.90;;;;;;5083933;28;20177;-79
2021/03/04 01:49:55;;;;;;;6.83;3.43;;;3.80;99.90;;;;;;5064198;28;20200;-79
2021/03/04 01:52:21;;;;;;;4.57;3.20;;;3.90;99.90;;;;;;5081990;28;20182;-79
2021/03/04 01:54:48;;;;;;;4.93;3.50;;;3.80;99.90;;;;;;5063140;28;20196;-79
2021/03/04 01:57:14;;;;;;;4.97;3.50;;;3.80;99.90;;;;;;5063860;28;20217;-79
2021/03/04 01:59:40;;;;;;;6.67;3.40;;;3.70;99.90;;;;;;5081849;28;20183;-78
2021/03/04 02:02:06;;;;;;;8.17;3.10;;;3.70;99.90;;;;;;5063510;28;20189;-79
2021/03/04 02:04:32;;;;;;;7.00;3.43;;;3.70;99.90;;;;;;5082593;28;20656;-80
2021/03/04 02:07:10;;;;;;;4.97;3.50;;;3.70;99.90;;;;;;5081846;28;20246;-79
2021/03/04 02:09:39;;;;;;;7.67;3.60;;;3.70;99.90;;;;;;5082267;28;20545;-79
2021/03/04 02:12:17;;;;;;;4.90;3.43;;;3.70;99.90;;;;;;5081633;28;20188;-79
2021/03/04 02:15:02;;;;;;;5.90;3.00;;;3.70;99.90;;;;;;5063529;28;20227;-79
2021/03/04 02:17:31;;;;;;;5.63;3.03;;;3.70;99.90;;;;;;5081481;28;20635;-80
2021/03/04 02:20:03;;;;;;;5.70;3.13;;;3.70;99.90;;;;;;5063884;28;20189;-79
2021/03/04 02:22:50;;;;;;;4.33;2.90;;;3.80;99.90;;;;;;5082718;28;20169;-79
2021/03/04 02:25:44;;;;;;;5.90;3.37;;;3.70;99.90;;;;;;5064465;28;20201;-79
2021/03/04 02:28:11;;;;;;;4.17;2.83;;;3.60;99.90;;;;;;5082973;28;20404;-80
2021/03/04 02:30:40;;;;;;;3.67;2.80;;;3.60;99.90;;;;;;5064197;28;20173;-80
2021/03/04 02:33:29;;;;;;;7.10;3.10;;;3.60;99.90;;;;;;5083043;28;20435;-80
2021/03/04 02:35:55;;;;;;;5.53;3.00;;;3.50;99.90;;;;;;5064435;28;20169;-80
2021/03/04 02:38:22;;;;;;;4.07;2.73;;;3.60;99.90;;;;;;5080626;28;20630;-80
2021/03/04 02:40:51;;;;;;;4.43;3.17;;;3.50;99.90;;;;;;5080255;28;20417;-80
2021/03/04 02:43:20;;;;;;;4.73;3.00;;;3.60;99.90;;;;;;5062428;28;20201;-80
2021/03/04 02:45:46;;;;;;;3.40;2.50;;;3.60;99.90;;;;;;5062557;28;20546;-80
2021/03/04 02:48:14;;;;;;;5.07;2.70;;;3.60;99.90;;;;;;5078729;28;20193;-80
2021/03/04 02:50:41;;;;;;;8.13;2.83;;;3.60;99.90;;;;;;5080219;28;20631;-80
2021/03/04 02:53:08;;;;;;;4.03;2.77;;;3.60;99.90;;;;;;5079834;28;20201;-80
2021/03/04 02:55:35;;;;;;;3.03;2.40;;;3.70;99.90;;;;;;5061541;28;20205;-80
2021/03/04 02:58:01;;;;;;;4.60;2.90;;;3.70;99.90;;;;;;5061383;28;20172;-80
2021/03/04 03:00:29;;;;;;;4.83;2.57;;;3.70;99.90;;;;;;5077929;28;20550;-80
2021/03/04 03:02:57;;;;;;;5.03;2.50;;;3.80;99.90;;;;;;5061881;28;20701;-80
2021/03/04 03:05:25;;;;;;;7.50;2.97;;;3.70;99.90;;;;;;5078375;28;20182;-80
2021/03/04 03:07:53;;;;;;;3.67;2.57;;;3.80;99.90;;;;;;5061279;28;20235;-80
2021/03/04 03:10:19;;;;;;;3.33;2.90;;;3.80;99.90;;;;;;5078173;28;20216;-80
2021/03/04 03:12:47;;;;;;;3.33;2.50;;;3.80;99.90;;;;;;5080416;28;20682;-80
2021/03/04 03:15:18;;;;;;;3.73;2.83;;;3.80;99.90;;;;;;5062632;28;20177;-80
2021/03/04 03:17:45;;;;;;;4.50;2.60;;;3.80;99.90;;;;;;5079580;28;20166;-80
2021/03/04 03:20:14;;;;;;;2.97;2.50;;;3.80;99.90;;;;;;5079793;28;20177;-80
2021/03/04 03:22:40;;;;;;;5.10;2.40;;;3.80;99.90;;;;;;5060989;28;20523;-80
2021/03/04 03:25:11;;;;;;;5.07;2.50;;;3.80;99.90;;;;;;5061570;28;20422;-80
2021/03/04 03:27:37;;;;;;;4.53;2.73;;;3.80;99.90;;;;;;5080522;28;20182;-80
2021/03/04 03:30:09;;;;;;;5.70;2.57;;;3.80;99.90;;;;;;5061630;28;20258;-80
2021/03/04 03:32:34;;;;;;;5.63;2.97;;;3.80;99.90;;;;;;5080348;28;20172;-80
2021/03/04 03:35:05;;;;;;;5.37;2.77;;;3.80;99.90;;;;;;5080767;28;20179;-80
2021/03/04 03:37:31;;;;;;;4.33;2.90;;;3.80;99.90;;;;;;5061956;28;20280;-80
2021/03/04 03:39:58;;;;;;;4.20;2.90;;;3.80;99.90;;;;;;5081217;28;20173;-80
2021/03/04 03:42:24;;;;;;;3.63;2.37;;;3.70;99.90;;;;;;5062850;28;20473;-80
2021/03/04 03:44:52;;;;;;;4.03;2.57;;;3.80;99.90;;;;;;5081747;28;20201;-80
2021/03/04 03:47:19;;;;;;;2.50;1.90;;;3.80;99.90;;;;;;5080420;28;20188;-80
2021/03/04 03:49:46;;;;;;;4.03;2.10;;;3.80;99.90;;;;;;5080713;28;20197;-80
2021/03/04 03:52:12;;;;;;;3.23;2.30;;;3.80;99.90;;;;;;5080919;28;20173;-80
2021/03/04 03:54:40;;;;;;;3.23;2.60;;;3.80;99.90;;;;;;5078291;28;20200;-80
2021/03/04 03:57:06;;;;;;;3.33;2.50;;;3.90;99.90;;;;;;5080369;28;20174;-80
2021/03/04 03:59:34;;;;;;;4.57;2.60;;;3.90;99.90;;;;;;5080124;28;20594;-80
2021/03/04 04:02:00;;;;;;;3.87;2.47;;;3.90;99.90;;;;;;5080859;28;20547;-80
2021/03/04 04:04:26;;;;;;;3.20;2.50;;;4.00;99.90;;;;;;5079075;28;20201;-80
2021/03/04 04:06:54;;;;;;;5.50;2.80;;;4.00;99.90;;;;;;5080517;28;20193;-80
2021/03/04 04:09:20;;;;;;;3.53;2.53;;;3.90;99.90;;;;;;5063022;28;20282;-80
2021/03/04 04:11:45;;;;;;;5.57;2.50;;;3.90;99.90;;;;;;5080389;28;20166;-80
2021/03/04 04:14:11;;;;;;;5.97;3.07;;;4.00;99.90;;;;;;5062304;28;20256;-80
2021/03/04 04:16:37;;;;;;;3.23;2.40;;;3.90;99.90;;;;;;5062642;28;20232;-80
2021/03/04 04:19:03;;;;;;;4.20;2.47;;;3.90;99.90;;;;;;5062619;28;20220;-80
2021/03/04 04:21:29;;;;;;;5.87;2.37;;;3.90;99.90;;;;;;5081250;28;20631;-80
2021/03/04 04:23:55;;;;;;;4.23;2.57;;;4.00;99.90;;;;;;5080941;28;20194;-80
2021/03/04 04:26:21;;;;;;;3.80;2.23;;;4.00;99.90;;;;;;5062726;28;20184;-80
2021/03/04 04:28:47;;;;;;;3.00;2.23;;;4.00;99.90;;;;;;5081107;28;20202;-80
2021/03/04 04:31:13;;;;;;;2.93;2.20;;;4.10;99.90;;;;;;5063143;28;20200;-80
2021/03/04 04:33:39;;;;;;;5.80;2.30;;;4.00;99.90;;;;;;5080495;28;20189;-80
2021/03/04 04:36:06;;;;;;;3.00;1.87;;;4.00;99.90;;;;;;5063206;28;20540;-80
2021/03/04 04:38:32;;;;;;;3.50;2.20;;;4.10;99.90;;;;;;5081420;28;20583;-80
2021/03/04 04:40:57;;;;;;;3.50;2.20;;;4.20;99.90;;;;;;5062768;28;20178;-80
2021/03/04 04:43:23;;;;;;;3.43;1.93;;;4.00;99.90;;;;;;5081825;28;20223;-80
2021/03/04 04:45:49;;;;;;;4.23;2.27;;;3.90;99.90;;;;;;5083611;28;20559;-80
2021/03/04 04:48:14;;;;;;;2.73;1.90;;;3.90;99.90;;;;;;5083856;28;20671;-80
2021/03/04 04:50:40;;;;;;;5.70;2.70;;;3.90;99.90;;;;;;5090227;28;20235;-80
2021/03/04 04:53:06;;;;;;;6.00;1.90;;;3.80;99.90;;;;;;5100084;28;20211;-80
2021/03/04 04:55:32;;;;;;;4.20;2.60;;;3.80;99.90;;;;;;5064851;28;20247;-80
2021/03/04 04:57:57;;;;;;;4.07;2.33;;;3.70;99.90;;;;;;5064924;28;20208;-79
2021/03/04 05:00:23;;;;;;;5.63;2.57;;;3.80;99.90;;;;;;5082326;28;20188;-80
2021/03/04 05:02:49;;;;;;;4.47;2.33;;;3.70;99.90;;;;;;5081924;28;20195;-80
2021/03/04 05:05:15;;;;;;;3.20;2.23;;;3.80;99.90;;;;;;5064419;28;20191;-80
2021/03/04 05:07:40;;;;;;;3.83;2.07;;;3.60;99.90;;;;;;5065467;28;20194;-80
2021/03/04 05:10:07;;;;;;;2.97;2.10;;;3.60;99.90;;;;;;5082006;28;20203;-79
2021/03/04 05:12:33;;;;;;;4.10;2.10;;;3.60;99.90;;;;;;5081543;28;20203;-80
2021/03/04 05:14:59;;;;;;;2.13;1.60;;;3.70;99.90;;;;;;5081861;28;20176;-80
2021/03/04 05:17:24;;;;;;;3.20;2.00;;;3.70;99.90;;;;;;5081977;28;20176;-80
2021/03/04 05:19:50;;;;;;;3.87;1.97;;;3.60;99.90;;;;;;5082183;28;20179;-79
2021/03/04 05:22:16;;;;;;;3.70;1.80;;;3.80;99.90;;;;;;5081979;28;20188;-80
2021/03/04 05:24:42;;;;;;;4.17;1.80;;;3.70;99.90;;;;;;5082300;28;20199;-80
2021/03/04 05:27:08;;;;;;;2.63;2.00;;;3.70;99.90;;;;;;5063860;28;20219;-80
2021/03/04 05:29:33;;;;;;;3.47;1.93;;;3.60;99.90;;;;;;5080959;28;20211;-80
2021/03/04 05:31:59;;;;;;;3.63;2.13;;;3.70;99.90;;;;;;5080623;28;20178;-80
2021/03/04 05:34:25;;;;;;;3.50;2.23;;;3.60;99.90;;;;;;5065076;28;20199;-80
2021/03/04 05:36:50;;;;;;;4.20;2.40;;;3.60;99.90;;;;;;5063323;28;20547;-80
2021/03/04 05:39:16;;;;;;;3.70;2.60;;;3.60;99.90;;;;;;5063937;28;20695;-80
2021/03/04 05:41:43;;;;;;;8.40;2.50;;;3.60;99.90;;;;;;5082166;28;20177;-80
2021/03/04 05:44:09;;;;;;;5.53;2.50;;;3.60;99.90;;;;;;5082059;28;20194;-80
2021/03/04 05:46:36;;;;;;;4.70;2.73;;;3.60;99.90;;;;;;5083795;28;20258;-80
2021/03/04 05:49:03;;;;;;;4.53;2.53;;;3.60;99.90;;;;;;5082741;28;20206;-80
2021/03/04 05:51:36;;;;;;;7.30;2.77;;;3.60;99.90;;;;;;5066085;28;20182;-81
2021/03/04 05:54:05;;;;;;;4.37;2.43;;;3.60;99.90;;;;;;5081903;28;20754;-79
2021/03/04 05:56:33;;;;;;;4.97;2.30;;;3.60;99.90;;;;;;5083990;28;20170;-79
2021/03/04 05:59:00;;;;;;;5.07;2.50;;;3.50;99.90;;;;;;5067450;28;20183;-80
2021/03/04 06:01:26;;;;;;;4.23;2.30;;;3.60;99.90;;;;;;5085600;28;20183;-79
2021/03/04 06:03:52;;;;;;;3.77;2.33;;;3.50;99.90;;;;;;5069324;28;20221;-80
2021/03/04 06:06:17;;;;;;;4.53;2.20;;;3.70;99.90;;;;;;5068808;28;20199;-79
2021/03/04 06:08:43;;;;;;;3.63;2.27;;;3.60;99.90;;;;;;5087144;28;20199;-79
2021/03/04 06:11:09;;;;;;;4.33;1.87;;;3.70;99.90;;;;;;5069737;28;20181;-80
2021/03/04 06:13:35;;;;;;;3.40;2.13;;;3.80;99.90;;;;;;5087702;28;20191;-80
2021/03/04 06:16:02;;;;;;;3.10;2.10;;;3.80;99.90;;;;;;5070536;28;20185;-79
2021/03/04 06:18:44;;;;;;;4.83;2.17;;;3.90;99.90;;;;;;5086271;28;20667;-79
2021/03/04 06:21:22;;;;;;;2.93;1.83;;;4.00;99.90;;;;;;5087887;28;20176;-79
2021/03/04 06:23:48;;;;;;;5.33;2.50;;;4.10;99.90;;;;;;5085621;28;20200;-80
2021/03/04 06:26:25;;;;;;;6.43;3.60;;;4.10;99.90;;;;;;5067216;28;20594;-80
2021/03/04 06:28:50;;;;;;;4.93;2.50;;;4.20;99.90;;;;;;5085831;28;20229;-80
2021/03/04 06:31:20;;;;;;;6.30;2.70;;;4.30;99.90;;;;;;5085303;28;20168;-79
2021/03/04 06:33:46;;;;;;;5.73;3.53;;;4.30;99.90;;;;;;5084905;28;20192;-80
2021/03/04 06:36:13;;;;;;;8.83;2.83;;;4.40;99.90;;;;;;5082538;28;20231;-79
2021/03/04 06:38:39;;;;;;;8.13;3.00;;;4.40;99.90;;;;;;5064352;28;20611;-79
2021/03/04 06:41:17;;;;;;;5.27;3.30;;;4.50;99.90;;;;;;5084179;28;20178;-79
2021/03/04 06:43:42;;;;;;;8.90;3.40;;;4.50;99.90;;;;;;5066175;28;20201;-79
2021/03/04 06:46:09;;;;;;;5.10;3.30;;;4.50;99.90;;;;;;5066723;28;20200;-79
2021/03/04 06:48:35;;;;;;;5.00;3.27;;;4.50;99.90;;;;;;5085290;28;20207;-80
2021/03/04 06:51:04;;;;;;;4.77;3.17;;;4.50;99.90;;;;;;5086112;28;20176;-80
2021/03/04 06:53:30;;;;;;;5.20;2.80;;;4.40;99.90;;;;;;5084715;28;20189;-79
2021/03/04 06:56:05;;;;;;;4.07;2.90;;;4.40;99.90;;;;;;5084839;28;20201;-79
2021/03/04 06:58:41;;;;;;;5.87;3.07;;;4.50;99.90;;;;;;5067621;28;20176;-79
2021/03/04 07:01:12;;;;;;;3.30;2.57;;;4.50;99.90;;;;;;5065253;28;20185;-79
2021/03/04 07:03:42;;;;;;;7.10;2.70;;;4.50;99.90;;;;;;5067046;28;20241;-79
2021/03/04 07:06:12;;;;;;;7.90;3.17;;;4.60;99.90;;;;;;5067628;28;20182;-79
2021/03/04 07:08:41;;;;;;;6.30;2.73;;;4.60;99.90;;;;;;5084917;28;20208;-79
2021/03/04 07:11:09;;;;;;;7.57;3.53;;;4.60;99.90;;;;;;5085672;28;20174;-80
2021/03/04 07:13:37;;;;;;;8.13;4.03;;;4.70;99.90;;;;;;5085286;28;20189;-79
2021/03/04 07:16:15;;;;;;;7.53;4.63;;;4.80;99.90;;;;;;5066788;28;20178;-79
2021/03/04 07:18:54;;;;;;;14.10;5.67;;;4.80;99.50;;;;;;5066612;28;20192;-79
2021/03/04 07:21:23;;;;;;;9.90;6.53;;;4.90;99.30;;;;;;5067397;28;20174;-79
2021/03/04 07:23:48;;;;;;;7.60;4.23;;;4.90;98.80;;;;;;5085277;28;20192;-79
2021/03/04 07:26:16;;;;;;;11.47;5.77;;;5.00;99.20;;;;;;5085612;28;20237;-79
2021/03/04 07:28:44;;;;;;;10.23;5.17;;;5.00;99.60;;;;;;5066884;28;20210;-79
2021/03/04 07:31:11;;;;;;;10.07;3.57;;;5.20;99.10;;;;;;5066987;28;20175;-79
2021/03/04 07:33:42;;;;;;;8.03;3.93;;;5.20;98.70;;;;;;5085168;28;20190;-80
2021/03/04 07:36:10;;;;;;;6.10;2.87;;;5.30;98.20;;;;;;5084166;28;20579;-79
2021/03/04 07:38:36;;;;;;;5.07;2.50;;;5.30;97.30;;;;;;5065965;28;20181;-80
2021/03/04 07:41:05;;;;;;;7.73;2.43;;;5.40;97.40;;;;;;5084810;28;20176;-79
2021/03/04 07:43:46;;;;;;;5.67;2.70;;;5.40;97.50;;;;;;5084641;28;20189;-79
2021/03/04 07:46:11;;;;;;;2.97;2.30;;;5.40;97.50;;;;;;5066863;28;20530;-79
2021/03/04 07:48:50;;;;;;;5.83;3.20;;;5.40;98.10;;;;;;5084029;28;20284;-79
2021/03/04 07:51:16;;;;;;;7.77;3.10;;;5.40;97.40;;;;;;5085337;28;20188;-79
2021/03/04 07:53:44;;;;;;;4.57;3.03;;;5.50;97.40;;;;;;5084747;28;20192;-79
2021/03/04 07:56:28;;;;;;;5.23;3.37;;;5.50;97.70;;;;;;5084752;28;20190;-79
2021/03/04 07:59:11;;;;;;;5.87;3.03;;;5.50;97.40;;;;;;5084718;28;20162;-79
2021/03/04 08:01:37;;;;;;;3.00;2.50;;;5.60;97.50;;;;;;5084189;28;20308;-79
2021/03/04 08:04:04;;;;;;;6.57;2.90;;;5.50;97.40;;;;;;5083949;28;20238;-79
2021/03/04 08:06:29;;;;;;;4.27;2.97;;;5.60;97.80;;;;;;5084079;28;20193;-79
2021/03/04 08:08:55;;;;;;;6.53;3.20;;;5.70;97.80;;;;;;5084388;28;20281;-80
2021/03/04 08:11:29;;;;;;;10.30;3.10;;;5.70;98.00;;;;;;5084454;28;20165;-80
2021/03/04 08:13:55;;;;;;;8.33;3.57;;;5.70;97.80;;;;;;5066378;28;20198;-79
2021/03/04 08:16:21;;;;;;;12.63;6.47;;;5.80;97.90;;;;;;5066545;28;20271;-80
2021/03/04 08:18:58;;;;;;;12.27;6.40;;;5.80;97.70;;;;;;5068313;28;20185;-80
2021/03/04 08:21:24;;;;;;;14.13;6.83;;;5.80;97.60;;;;;;5070701;28;20567;-80
2021/03/04 08:23:51;;;;;;;9.97;5.30;;;5.90;98.10;;;;;;5087905;28;20224;-80
2021/03/04 08:26:28;;;;;;;7.90;4.13;;;6.00;97.70;;;;;;5067789;28;20605;-79
2021/03/04 08:29:11;;;;;;;9.37;3.77;;;6.10;98.00;;;;;;5086154;28;20201;-79
2021/03/04 08:31:52;;;;;;;10.20;4.30;;;6.10;97.20;;;;;;5069070;28;20188;-79
2021/03/04 08:34:17;;;;;;;6.80;3.93;;;6.10;97.10;;;;;;5068759;28;20313;-80
2021/03/04 08:36:48;;;;;;;6.60;4.27;;;6.20;97.20;;;;;;5068818;28;20621;-80
2021/03/04 08:39:15;;;;;;;9.17;4.47;;;6.20;97.30;;;;;;5086628;28;20261;-80
2021/03/04 08:41:41;;;;;;;7.60;3.20;;;6.30;97.20;;;;;;5086721;28;20178;-80
2021/03/04 08:44:15;;;;;;;7.90;4.57;;;6.30;97.10;;;;;;5086316;28;20225;-80
2021/03/04 08:46:48;;;;;;;9.00;4.40;;;6.50;97.40;;;;;;5086754;28;20173;-79
2021/03/04 08:49:19;;;;;;;7.83;4.17;;;6.60;96.90;;;;;;5085910;28;20224;-80
2021/03/04 08:51:45;;;;;;;7.43;4.47;;;6.70;96.70;;;;;;5087631;28;20219;-80
2021/03/04 08:54:26;;;;;;;5.77;4.00;;;6.90;96.50;;;;;;5070281;28;20242;-80
2021/03/04 08:57:04;;;;;;;7.90;4.60;;;7.00;96.10;;;;;;5069032;28;20178;-80
2021/03/04 08:59:31;;;;;;;11.00;4.63;;;7.20;96.00;;;;;;5069596;28;20173;-80
2021/03/04 09:01:58;;;;;;;7.77;4.43;;;7.40;95.90;;;;;;5069702;28;20179;-80
2021/03/04 09:04:25;;;;;;;13.03;5.30;;;7.50;95.50;;;;;;5070919;28;20290;-79
2021/03/04 09:06:52;;;;;;;9.33;5.03;;;7.70;95.10;;;;;;5069298;28;20198;-80
2021/03/04 09:09:29;;;;;;;7.53;5.03;;;7.90;94.60;;;;;;5069628;28;20210;-80
2021/03/04 09:11:56;;;;;;;16.73;4.77;;;8.10;94.00;;;;;;5087657;28;20172;-79
2021/03/04 09:14:33;;;;;;;8.37;4.43;;;8.40;93.00;;;;;;5069601;28;20251;-80
2021/03/04 09:16:59;;;;;;;9.77;4.40;;;8.60;93.50;;;;;;5069326;28;20608;-80
2021/03/04 09:19:26;;;;;;;8.57;4.43;;;8.80;91.90;;;;;;5087040;28;20712;-80
2021/03/04 09:21:52;;;;;;;11.83;4.73;;;8.80;92.10;;;;;;5087112;28;20234;-80
2021/03/04 09:24:18;;;;;;;9.37;4.07;;;8.70;92.20;;;;;;5087306;28;20203;-80
2021/03/04 09:26:44;;;;;;;9.87;3.80;;;8.80;91.10;;;;;;5087426;28;20184;-80
2021/03/04 09:29:10;;;;;;;6.63;3.87;;;8.90;89.70;;;;;;5087478;28;20204;-80
2021/03/04 09:31:36;;;;;;;5.60;3.77;;;9.10;88.20;;;;;;5069183;28;20181;-80
2021/03/04 09:34:04;;;;;;;8.70;4.37;;;9.30;85.40;;;;;;5087956;28;20192;-80
2021/03/04 09:36:30;;;;;;;9.47;4.37;;;9.50;85.60;;;;;;5085514;28;20180;-80
2021/03/04 09:38:57;;;;;;;6.63;4.20;;;9.60;83.10;;;;;;5085345;28;20646;-80
2021/03/04 09:41:25;;;;;;;10.90;4.20;;;9.60;82.80;;;;;;5086790;28;20685;-80
2021/03/04 09:44:10;;;;;;;11.63;4.67;;;9.60;81.20;;;;;;5086675;28;20219;-80
2021/03/04 09:46:41;;;;;;;9.67;5.20;;;9.70;81.20;;;;;;5087024;28;20272;-80
2021/03/04 09:49:12;;;;;;;10.13;5.00;;;9.80;80.40;;;;;;5086153;28;20215;-80
2021/03/04 09:51:40;;;;;;;9.97;5.50;;;10.00;78.50;;;;;;5068835;28;20180;-80
2021/03/04 09:54:07;;;;;;;10.37;5.30;;;10.30;79.80;;;;;;5087113;28;20193;-80
2021/03/04 09:56:33;;;;;;;10.90;5.90;;;10.40;78.90;;;;;;5068786;28;20177;-80
2021/03/04 09:58:58;;;;;;;16.70;5.80;;;10.60;78.20;;;;;;5067733;28;20189;-80
2021/03/04 10:01:35;;;;;;;14.20;5.97;;;11.00;75.40;;;;;;5085785;28;20180;-81
2021/03/04 10:04:06;;;;;;;9.20;4.87;;;11.50;74.60;;;;;;5086242;28;20256;-80
2021/03/04 10:06:36;;;;;;;12.23;5.87;;;11.70;72.50;;;;;;5085670;28;20196;-80
2021/03/04 10:09:04;;;;;;;12.90;5.30;;;11.50;72.20;;;;;;5067499;28;20690;-80
2021/03/04 10:11:32;;;;;;;13.47;5.87;;;11.30;72.10;;;;;;5084764;28;20639;-80
2021/03/04 10:14:08;;;;;;;8.63;5.33;;;11.00;71.80;;;;;;5084753;28;20564;-80
2021/03/04 10:16:34;;;;;;;12.40;6.27;;;10.70;72.90;;;;;;5066420;28;20172;-80
2021/03/04 10:19:00;;;;;;;15.33;6.20;;;10.80;74.40;;;;;;5085501;28;20183;-80
2021/03/04 10:21:26;;;;;;;14.33;6.03;;;10.90;72.40;;;;;;5066189;28;20184;-80
2021/03/04 10:23:52;;;;;;;14.33;6.93;;;10.90;71.70;;;;;;5083714;28;20220;-80
2021/03/04 10:26:18;;;;;;;17.07;6.30;;;11.00;72.30;;;;;;5084525;28;20192;-80
2021/03/04 10:28:43;;;;;;;10.73;6.20;;;11.00;71.70;;;;;;5066416;28;20224;-80
2021/03/04 10:31:09;;;;;;;12.07;6.33;;;10.90;73.20;;;;;;5084928;28;20180;-80
2021/03/04 10:33:35;;;;;;;14.90;6.47;;;10.90;72.20;;;;;;5084474;28;20247;-80
2021/03/04 10:36:00;;;;;;;13.47;6.40;;;10.90;72.50;;;;;;5084856;28;20169;-80
2021/03/04 10:38:26;;;;;;;15.27;6.47;;;10.90;72.80;;;;;;5066707;28;20180;-80
2021/03/04 10:40:52;;;;;;;16.70;7.20;;;10.90;74.30;;;;;;5084784;28;20170;-80
2021/03/04 10:43:18;;;;;;;14.63;6.63;;;11.00;73.80;;;;;;5085371;28;20200;-82
2021/03/04 10:45:44;;;;;;;16.53;6.50;;;11.10;73.40;;;;;;5067150;28;20169;-80
2021/03/04 10:48:11;;;;;;;12.47;6.47;;;11.10;70.90;;;;;;5067261;28;20535;-80
2021/03/04 10:50:37;;;;;;;12.23;6.73;;;11.00;71.20;;;;;;5067994;28;20208;-80
2021/03/04 10:53:03;;;;;;;20.10;7.13;;;11.00;71.10;;;;;;5069162;28;20220;-80
2021/03/04 10:55:30;;;;;;;13.37;5.90;;;10.90;70.50;;;;;;5087665;28;20638;-80
2021/03/04 10:57:56;;;;;;;11.93;5.93;;;11.00;70.80;;;;;;5086166;28;20643;-80
2021/03/04 11:00:22;;;;;;;13.07;6.33;;;11.00;70.70;;;;;;5086299;28;20240;-80
2021/03/04 11:02:48;;;;;;;13.83;6.27;;;10.90;69.90;;;;;;5086379;28;20193;-79
2021/03/04 11:05:14;;;;;;;16.47;6.23;;;11.00;70.40;;;;;;5086550;28;20228;-80
2021/03/04 11:07:39;;;;;;;10.43;5.50;;;11.10;71.10;;;;;;5086109;28;20275;-79
2021/03/04 11:10:07;;;;;;;18.30;5.60;;;11.20;70.30;;;;;;5086152;28;20208;-80
2021/03/04 11:12:33;;;;;;;10.07;5.13;;;11.30;69.80;;;;;;5066421;28;20201;-80
2021/03/04 11:14:59;;;;;;;16.50;6.07;;;11.40;71.20;;;;;;5084557;28;20188;-80
2021/03/04 11:17:25;;;;;;;11.40;5.53;;;11.50;69.70;;;;;;5084499;28;20615;-79
2021/03/04 11:19:52;;;;;;;16.17;5.67;;;11.70;69.90;;;;;;5083935;28;20178;-80
2021/03/04 11:22:18;;;;;;;10.90;5.20;;;11.80;69.40;;;;;;5084146;28;20182;-80
2021/03/04 11:24:47;;;;;;;9.43;4.80;;;12.10;66.10;;;;;;5083687;28;20235;-80
2021/03/04 11:27:13;;;;;;;8.50;5.00;;;12.70;64.50;;;;;;5067705;28;20177;-80
2021/03/04 11:29:40;;;;;;;10.57;5.03;;;13.50;62.70;;;;;;5066239;28;20247;-80
2021/03/04 11:32:06;;;;;;;12.73;5.07;;;13.50;62.60;;;;;;5082471;28;20233;-80
2021/03/04 11:34:31;;;;;;;21.63;5.53;;;13.10;60.70;;;;;;5080812;28;20675;-80
2021/03/04 11:36:57;;;;;;;13.17;5.20;;;12.90;61.70;;;;;;5082436;28;20176;-81
2021/03/04 11:39:23;;;;;;;11.27;5.33;;;12.90;62.00;;;;;;5081975;28;20177;-81
2021/03/04 11:41:48;;;;;;;16.40;6.87;;;12.60;61.10;;;;;;5082714;28;20190;-81
2021/03/04 11:44:14;;;;;;;15.43;5.73;;;13.00;61.60;;;;;;5081947;28;20204;-80
2021/03/04 11:46:42;;;;;;;14.23;4.93;;;13.40;60.50;;;;;;5083110;28;20171;-80
2021/03/04 11:49:08;;;;;;;13.20;6.47;;;13.70;61.20;;;;;;5082650;28;20291;-80
2021/03/04 11:51:34;;;;;;;11.37;5.73;;;14.30;60.90;;;;;;5082512;28;20207;-80
2021/03/04 11:54:00;;;;;;;13.77;6.23;;;14.80;59.90;;;;;;5011370;28;20234;-80
2021/03/04 11:56:26;;;;;;;12.70;5.23;;;15.20;58.80;;;;;;5086251;28;20184;-80
2021/03/04 11:58:52;;;;;;;11.67;5.47;;;15.80;56.40;;;;;;5106454;28;20263;-80
2021/03/04 12:01:18;;;;;;;10.00;5.00;;;15.60;54.90;;;;;;5108047;28;20183;-78
2021/03/04 12:03:43;;;;;;;15.87;5.73;;;15.50;53.50;;;;;;5107336;28;20192;-78
2021/03/04 12:06:09;;;;;;;11.87;5.80;;;15.60;53.90;;;;;;5090468;28;20272;-78
2021/03/04 12:08:35;;;;;;;11.70;5.53;;;15.60;52.70;;;;;;5107325;28;20600;-80
2021/03/04 12:11:01;;;;;;;15.23;6.10;;;15.70;53.20;;;;;;5106804;28;20173;-78
2021/03/04 12:13:31;;;;;;;17.23;5.60;;;15.90;53.20;;;;;;5106567;28;20188;-78
2021/03/04 12:15:58;;;;;;;13.07;5.67;;;15.90;51.80;;;;;;5106688;28;20153;-78
2021/03/04 12:18:24;;;;;;;11.27;5.60;;;16.00;52.60;;;;;;5107916;28;20535;-78
2021/03/04 12:20:51;;;;;;;11.50;5.50;;;16.40;51.40;;;;;;5108055;28;20169;-79
2021/03/04 12:23:17;;;;;;;12.20;5.33;;;16.90;52.60;;;;;;5089590;28;20200;-78
2021/03/04 12:25:43;;;;;;;12.20;5.17;;;17.00;49.80;;;;;;5089109;28;20236;-79
2021/03/04 12:28:11;;;;;;;13.20;5.27;;;16.80;48.80;;;;;;5107260;28;20165;-79
2021/03/04 12:30:37;;;;;;;10.47;5.27;;;16.60;49.50;;;;;;5088981;28;20206;-79
2021/03/04 12:33:03;;;;;;;13.73;5.37;;;16.50;48.60;;;;;;5107485;28;20216;-79
2021/03/04 12:35:29;;;;;;;12.53;5.10;;;16.20;49.60;;;;;;5107907;28;20216;-79
2021/03/04 12:37:54;;;;;;;12.30;5.27;;;15.90;49.00;;;;;;5107030;28;20230;-80
2021/03/04 12:40:20;;;;;;;14.67;5.50;;;15.30;49.20;;;;;;5106742;28;20578;-79
2021/03/04 12:42:46;;;;;;;19.37;5.67;;;14.60;50.60;;;;;;5106280;28;20172;-79
2021/03/04 12:45:12;;;;;;;12.67;5.33;;;15.00;51.20;;;;;;5107071;28;20169;-79
2021/03/04 12:47:37;;;;;;;12.63;5.33;;;15.20;50.40;;;;;;5089043;28;20200;-79
2021/03/04 12:50:04;;;;;;;12.90;5.57;;;14.90;50.30;;;;;;5106934;28;20215;-79
2021/03/04 12:52:30;;;;;;;13.37;6.17;;;15.00;51.70;;;;;;5108669;28;20247;-79
2021/03/04 12:54:57;;;;;;;9.80;5.00;;;14.90;50.60;;;;;;5108620;28;20183;-79